Time;durP1;ratioP1;P1;durP2;ratioP2;P2;SDS_P1;SDS_P2;PMS_P1;PMS_P2;Temp;Humidity;BMP_temperature;BMP_pressure;BME280_temperature;BME280_humidity;BME280_pressure;Samples;Min_cycle;Max_cycle;Signal;HPM_P1;HPM_P2
2023/04/25 00:01:26;;;;;;;15.65;12.27;;;;;;;;;;4935229;29;20130;-66
2023/04/25 00:03:52;;;;;;;18.00;12.25;;;;;;;;;;4936661;29;20142;-66
2023/04/25 00:06:20;;;;;;;15.97;11.77;;;;;;;;;;4936343;29;20075;-66
2023/04/25 00:08:47;;;;;;;16.25;12.52;;;;;;;;;;4936665;29;20290;-66
2023/04/25 00:11:14;;;;;;;;;;;;;;;;;;4936738;29;20086;-66
2023/04/25 00:13:41;;;;;;;16.48;12.80;;;;;;;;;;4936178;29;19926;-66
2023/04/25 00:16:08;;;;;;;15.95;12.02;;;;;;;;;;4936285;29;20058;-66
2023/04/25 00:18:34;;;;;;;18.30;13.65;;;;;;;;;;4936724;29;20090;-66
2023/04/25 00:21:01;;;;;;;18.88;12.98;;;;;;;;;;4935926;29;20601;-66
2023/04/25 00:23:27;;;;;;;21.13;14.10;;;;;;;;;;4935685;29;20135;-66
2023/04/25 00:25:53;;;;;;;19.55;13.90;;;;;;;;;;4935829;29;20044;-66
2023/04/25 00:28:20;;;;;;;21.42;14.80;;;;;;;;;;4936521;29;20048;-66
2023/04/25 00:30:46;;;;;;;21.80;15.43;;;;;;;;;;4935864;29;20048;-66
2023/04/25 00:33:13;;;;;;;17.60;13.57;;;;;;;;;;4935887;29;20130;-66
2023/04/25 00:35:39;;;;;;;15.32;13.18;;;;;;;;;;4935826;29;20039;-66
2023/04/25 00:38:06;;;;;;;15.88;12.02;;;;;;;;;;4936542;29;20054;-66
2023/04/25 00:40:32;;;;;;;17.35;12.63;;;;;;;;;;4935624;29;20075;-66
2023/04/25 00:42:59;;;;;;;16.27;12.20;;;;;;;;;;4935825;29;20150;-66
2023/04/25 00:45:27;;;;;;;17.25;13.02;;;;;;;;;;4935668;29;20048;-66
2023/04/25 00:47:54;;;;;;;18.35;12.32;;;;;;;;;;4936323;29;20049;-66
2023/04/25 00:50:20;;;;;;;15.43;11.90;;;;;;;;;;4935562;29;20052;-66
2023/04/25 00:52:47;;;;;;;17.63;11.98;;;;;;;;;;4935591;29;20055;-66
2023/04/25 00:55:14;;;;;;;14.18;11.38;;;;;;;;;;4924921;29;20055;-66
2023/04/25 00:57:41;;;;;;;16.13;11.18;;;;;;;;;;4936073;29;20051;-66
2023/04/25 01:00:09;;;;;;;17.02;11.95;;;;;;;;;;4935604;29;20044;-66
2023/04/25 01:02:35;;;;;;;;;;;;;;;;;;4929697;29;20063;-66
2023/04/25 01:05:02;;;;;;;17.00;10.98;;;;;;;;;;4935642;29;20025;-66
2023/04/25 01:07:30;;;;;;;15.27;10.77;;;;;;;;;;4935096;29;20492;-66
2023/04/25 01:09:57;;;;;;;16.25;11.68;;;;;;;;;;4933971;29;20055;-66
2023/04/25 01:12:24;;;;;;;15.35;10.98;;;;;;;;;;4934277;29;20289;-66
2023/04/25 01:14:50;;;;;;;15.30;10.80;;;;;;;;;;4935371;29;20052;-66
2023/04/25 01:17:17;;;;;;;15.38;9.93;;;;;;;;;;4934973;29;20519;-66
2023/04/25 01:19:45;;;;;;;13.30;10.27;;;;;;;;;;4935652;29;20056;-66
2023/04/25 01:22:12;;;;;;;16.63;10.02;;;;;;;;;;4934497;29;20048;-66
2023/04/25 01:24:38;;;;;;;16.77;9.95;;;;;;;;;;4935482;29;20047;-66
2023/04/25 01:27:06;;;;;;;14.98;9.90;;;;;;;;;;4934400;29;20126;-66
2023/04/25 01:29:32;;;;;;;16.00;10.20;;;;;;;;;;4934456;29;20551;-66
2023/04/25 01:31:59;;;;;;;14.73;10.77;;;;;;;;;;4934268;29;20308;-66
2023/04/25 01:34:25;;;;;;;16.88;9.70;;;;;;;;;;4934110;29;20135;-66
2023/04/25 01:36:52;;;;;;;15.07;9.48;;;;;;;;;;4934513;29;20407;-66
2023/04/25 01:39:19;;;;;;;14.37;10.03;;;;;;;;;;4935318;29;20400;-66
2023/04/25 01:41:48;;;;;;;15.20;9.88;;;;;;;;;;4934524;29;20050;-66
2023/04/25 01:44:14;;;;;;;14.52;9.13;;;;;;;;;;4934704;29;20052;-66
2023/04/25 01:46:41;;;;;;;14.80;8.70;;;;;;;;;;4934710;29;20044;-66
2023/04/25 01:49:07;;;;;;;13.00;8.88;;;;;;;;;;4934644;29;20360;-66
2023/04/25 01:51:34;;;;;;;11.63;7.93;;;;;;;;;;4933776;29;20552;-66
2023/04/25 01:54:00;;;;;;;13.63;7.97;;;;;;;;;;4934138;29;20074;-66
2023/04/25 01:56:30;;;;;;;16.05;7.70;;;;;;;;;;4933862;29;20058;-66
2023/04/25 01:58:57;;;;;;;11.55;6.53;;;;;;;;;;4934693;29;20519;-66
2023/04/25 02:01:23;;;;;;;11.60;6.63;;;;;;;;;;4934231;29;20047;-66
2023/04/25 02:03:50;;;;;;;12.65;6.25;;;;;;;;;;4934128;29;20130;-66
2023/04/25 02:06:17;;;;;;;11.93;5.28;;;;;;;;;;4934159;29;20055;-66
2023/04/25 02:08:43;;;;;;;11.82;5.82;;;;;;;;;;4933866;29;20090;-66
2023/04/25 02:11:09;;;;;;;14.32;5.10;;;;;;;;;;4934467;29;20460;-66
2023/04/25 02:13:36;;;;;;;9.82;4.93;;;;;;;;;;4934367;29;20065;-66
2023/04/25 02:16:02;;;;;;;10.90;5.50;;;;;;;;;;4933980;29;20087;-66
2023/04/25 02:18:29;;;;;;;13.18;5.20;;;;;;;;;;4934781;29;20052;-66
2023/04/25 02:20:55;;;;;;;12.50;5.05;;;;;;;;;;4933894;29;20048;-66
2023/04/25 02:23:21;;;;;;;12.02;4.78;;;;;;;;;;4933297;29;20058;-66
2023/04/25 02:25:48;;;;;;;9.30;4.45;;;;;;;;;;4933780;29;20058;-66
2023/04/25 02:28:15;;;;;;;10.73;4.55;;;;;;;;;;4933936;29;20439;-66
2023/04/25 02:30:41;;;;;;;12.05;4.72;;;;;;;;;;4934000;29;20135;-66
2023/04/25 02:33:08;;;;;;;11.82;5.20;;;;;;;;;;4934052;29;20139;-66
2023/04/25 02:35:35;;;;;;;12.37;4.60;;;;;;;;;;4933853;29;20055;-66
2023/04/25 02:38:01;;;;;;;11.35;4.20;;;;;;;;;;4934183;29;20063;-66
2023/04/25 02:40:28;;;;;;;10.88;4.68;;;;;;;;;;4934049;29;20086;-66
2023/04/25 02:42:54;;;;;;;9.05;4.50;;;;;;;;;;4933849;29;20044;-66
2023/04/25 02:45:21;;;;;;;10.75;3.92;;;;;;;;;;4933613;29;20496;-66
2023/04/25 02:47:47;;;;;;;11.18;4.50;;;;;;;;;;4934114;29;20134;-66
2023/04/25 02:50:14;;;;;;;9.73;4.22;;;;;;;;;;4933987;29;20067;-66
2023/04/25 02:52:40;;;;;;;11.63;4.35;;;;;;;;;;4933801;29;20051;-66
2023/04/25 02:55:06;;;;;;;12.13;4.43;;;;;;;;;;4933892;29;20087;-66
2023/04/25 02:57:33;;;;;;;11.38;4.47;;;;;;;;;;4934046;29;20570;-67
2023/04/25 02:59:59;;;;;;;9.90;4.38;;;;;;;;;;4934227;29;20143;-66
2023/04/25 03:02:26;;;;;;;8.43;4.45;;;;;;;;;;4932546;29;20138;-66
2023/04/25 03:04:53;;;;;;;13.05;5.25;;;;;;;;;;4933584;29;20463;-66
2023/04/25 03:07:20;;;;;;;9.25;4.10;;;;;;;;;;4934439;29;20526;-66
2023/04/25 03:09:46;;;;;;;9.43;3.92;;;;;;;;;;4937811;29;20066;-66
2023/04/25 03:12:13;;;;;;;11.00;4.20;;;;;;;;;;4936874;29;20057;-66
2023/04/25 03:14:39;;;;;;;7.63;4.28;;;;;;;;;;4937821;29;20052;-66
2023/04/25 03:17:05;;;;;;;9.10;4.00;;;;;;;;;;4937458;29;20051;-66
2023/04/25 03:19:32;;;;;;;7.63;3.70;;;;;;;;;;4937873;29;20047;-66
2023/04/25 03:21:58;;;;;;;12.73;4.55;;;;;;;;;;4936255;29;20051;-66
2023/04/25 03:24:24;;;;;;;8.43;4.22;;;;;;;;;;4936945;29;20551;-66
2023/04/25 03:26:51;;;;;;;10.02;4.43;;;;;;;;;;4936916;29;20488;-66
2023/04/25 03:29:17;;;;;;;12.27;4.00;;;;;;;;;;4937429;29;20138;-66
2023/04/25 03:31:44;;;;;;;10.13;4.43;;;;;;;;;;4936518;29;20389;-66
2023/04/25 03:34:10;;;;;;;11.20;4.07;;;;;;;;;;4936848;29;20134;-66
2023/04/25 03:36:36;;;;;;;9.77;4.70;;;;;;;;;;4937006;29;20118;-66
2023/04/25 03:39:06;;;;;;;8.38;3.67;;;;;;;;;;4937220;29;20131;-66
2023/04/25 03:41:32;;;;;;;6.72;4.25;;;;;;;;;;4936377;29;20056;-66
2023/04/25 03:43:59;;;;;;;7.75;4.47;;;;;;;;;;4936141;29;20340;-66
2023/04/25 03:46:25;;;;;;;9.27;4.40;;;;;;;;;;4935974;29;20480;-66
2023/04/25 03:48:52;;;;;;;7.72;4.10;;;;;;;;;;4936601;29;20823;-66
2023/04/25 03:51:18;;;;;;;10.65;4.30;;;;;;;;;;4936441;29;20500;-66
2023/04/25 03:53:45;;;;;;;10.88;4.10;;;;;;;;;;4936836;29;20048;-66
2023/04/25 03:56:11;;;;;;;9.40;4.50;;;;;;;;;;4936388;29;20058;-66
2023/04/25 03:58:37;;;;;;;10.02;4.40;;;;;;;;;;4936944;29;20054;-66
2023/04/25 04:01:07;;;;;;;8.70;4.78;;;;;;;;;;4936320;29;20047;-66
2023/04/25 04:03:37;;;;;;;11.13;4.50;;;;;;;;;;4936259;29;20067;-66
2023/04/25 04:06:05;;;;;;;10.02;4.30;;;;;;;;;;4936502;29;20107;-66
2023/04/25 04:08:32;;;;;;;15.23;4.95;;;;;;;;;;4936069;29;20055;-66
2023/04/25 04:10:59;;;;;;;9.95;4.10;;;;;;;;;;4936233;29;20051;-66
2023/04/25 04:13:26;;;;;;;10.35;4.60;;;;;;;;;;4936396;29;20059;-66
2023/04/25 04:15:53;;;;;;;11.33;4.50;;;;;;;;;;4936150;29;20525;-66
2023/04/25 04:18:19;;;;;;;7.82;4.10;;;;;;;;;;4936572;29;20134;-66
2023/04/25 04:20:45;;;;;;;8.90;4.57;;;;;;;;;;4935976;29;20048;-66
2023/04/25 04:23:12;;;;;;;10.75;5.60;;;;;;;;;;4936182;29;20066;-66
2023/04/25 04:25:39;;;;;;;8.73;4.60;;;;;;;;;;4935001;29;20105;-67
2023/04/25 04:28:06;;;;;;;8.85;4.55;;;;;;;;;;4936141;29;20142;-66
2023/04/25 04:30:36;;;;;;;8.68;4.20;;;;;;;;;;4935953;29;20059;-66
2023/04/25 04:33:03;;;;;;;8.88;4.78;;;;;;;;;;4935895;29;20051;-66
2023/04/25 04:35:30;;;;;;;8.50;4.00;;;;;;;;;;4935848;29;20073;-66
2023/04/25 04:37:56;;;;;;;9.48;4.93;;;;;;;;;;4936249;29;20047;-66
2023/04/25 04:40:22;;;;;;;8.38;5.05;;;;;;;;;;4935717;29;20445;-66
2023/04/25 04:42:49;;;;;;;9.95;4.95;;;;;;;;;;4935612;29;20052;-67
2023/04/25 04:45:15;;;;;;;10.20;4.70;;;;;;;;;;4935750;29;20064;-66
2023/04/25 04:47:42;;;;;;;10.05;4.70;;;;;;;;;;4935723;29;20082;-66
2023/04/25 04:50:09;;;;;;;11.32;5.07;;;;;;;;;;4935531;29;20192;-67
2023/04/25 04:52:36;;;;;;;9.30;5.15;;;;;;;;;;4935253;29;20055;-66
2023/04/25 04:55:03;;;;;;;9.88;4.65;;;;;;;;;;4936110;29;20055;-66
2023/04/25 04:57:30;;;;;;;9.57;5.03;;;;;;;;;;4935677;29;20059;-66
2023/04/25 04:59:57;;;;;;;9.23;4.77;;;;;;;;;;4935788;29;20044;-66
2023/04/25 05:02:23;;;;;;;9.75;4.45;;;;;;;;;;4934402;29;20054;-66
2023/04/25 05:04:51;;;;;;;6.85;4.65;;;;;;;;;;4935488;29;20056;-66
2023/04/25 05:07:18;;;;;;;6.80;4.68;;;;;;;;;;4934848;29;20055;-66
2023/04/25 05:09:44;;;;;;;6.15;4.53;;;;;;;;;;4935406;29;20139;-66
2023/04/25 05:12:11;;;;;;;9.70;4.50;;;;;;;;;;4934911;29;20043;-66
2023/04/25 05:14:37;;;;;;;9.13;4.47;;;;;;;;;;4935785;29;20052;-66
2023/04/25 05:17:08;;;;;;;9.98;5.22;;;;;;;;;;4934893;29;20518;-66
2023/04/25 05:19:34;;;;;;;6.35;4.65;;;;;;;;;;4934239;29;20469;-66
2023/04/25 05:22:01;;;;;;;10.70;4.88;;;;;;;;;;4934759;29;20050;-66
2023/04/25 05:24:27;;;;;;;8.02;4.47;;;;;;;;;;4935397;29;20126;-66
2023/04/25 05:26:53;;;;;;;11.73;5.22;;;;;;;;;;4934904;29;20058;-66
2023/04/25 05:29:20;;;;;;;10.60;5.32;;;;;;;;;;4934858;29;20405;-66
2023/04/25 05:31:48;;;;;;;8.23;4.75;;;;;;;;;;4934218;29;20056;-66
2023/04/25 05:34:15;;;;;;;9.77;4.20;;;;;;;;;;4934846;29;20060;-66
2023/04/25 05:36:41;;;;;;;8.87;4.30;;;;;;;;;;4934975;29;20130;-66
2023/04/25 05:39:08;;;;;;;5.75;4.25;;;;;;;;;;4935104;29;20059;-66
2023/04/25 05:41:35;;;;;;;7.63;4.85;;;;;;;;;;4934294;29;20044;-66
2023/04/25 05:44:02;;;;;;;9.02;4.53;;;;;;;;;;4934651;29;20063;-66
2023/04/25 05:46:28;;;;;;;7.97;4.90;;;;;;;;;;4934734;29;20052;-66
2023/04/25 05:48:55;;;;;;;11.90;5.07;;;;;;;;;;4935244;29;20054;-66
2023/04/25 05:51:21;;;;;;;10.45;4.72;;;;;;;;;;4934611;29;20062;-66
2023/04/25 05:53:47;;;;;;;11.43;5.47;;;;;;;;;;4933354;29;20056;-66
2023/04/25 05:56:14;;;;;;;9.23;4.82;;;;;;;;;;4934460;29;20071;-66
2023/04/25 05:58:40;;;;;;;8.68;4.72;;;;;;;;;;4934909;29;20411;-67
2023/04/25 06:01:07;;;;;;;10.18;5.00;;;;;;;;;;4934390;29;20054;-66
2023/04/25 06:03:33;;;;;;;9.15;5.38;;;;;;;;;;4934089;29;20488;-66
2023/04/25 06:06:00;;;;;;;13.25;6.15;;;;;;;;;;4934387;29;20039;-66
2023/04/25 06:08:26;;;;;;;11.25;5.80;;;;;;;;;;4934424;29;20099;-66
2023/04/25 06:10:53;;;;;;;10.07;5.60;;;;;;;;;;4934212;29;20062;-66
2023/04/25 06:13:19;;;;;;;10.02;5.22;;;;;;;;;;4934065;29;20130;-67
2023/04/25 06:15:46;;;;;;;9.05;5.07;;;;;;;;;;4934356;29;20131;-66
2023/04/25 06:18:12;;;;;;;9.90;4.75;;;;;;;;;;4934600;29;20051;-66
2023/04/25 06:20:38;;;;;;;10.88;5.00;;;;;;;;;;4932594;29;20054;-66
2023/04/25 06:23:05;;;;;;;11.00;5.55;;;;;;;;;;4934209;29;20440;-66
2023/04/25 06:25:31;;;;;;;12.43;5.90;;;;;;;;;;4933766;29;20503;-66
2023/04/25 06:27:58;;;;;;;12.15;4.63;;;;;;;;;;4933880;29;20048;-66
2023/04/25 06:30:25;;;;;;;7.97;3.83;;;;;;;;;;4934155;29;20060;-66
2023/04/25 06:32:52;;;;;;;7.85;3.67;;;;;;;;;;4933820;29;20177;-66
2023/04/25 06:35:20;;;;;;;9.00;3.72;;;;;;;;;;4934169;29;20059;-66
2023/04/25 06:37:47;;;;;;;9.43;3.88;;;;;;;;;;4929100;29;20567;-66
2023/04/25 06:40:13;;;;;;;10.00;4.05;;;;;;;;;;4925689;29;20139;-66
2023/04/25 06:42:39;;;;;;;8.07;3.53;;;;;;;;;;4932817;29;20044;-66
2023/04/25 06:45:06;;;;;;;8.43;4.20;;;;;;;;;;4933583;29;20122;-66
2023/04/25 06:47:32;;;;;;;8.43;3.20;;;;;;;;;;4933370;29;20048;-66
2023/04/25 06:49:59;;;;;;;9.45;3.00;;;;;;;;;;4934194;29;20051;-66
2023/04/25 06:52:25;;;;;;;7.40;2.78;;;;;;;;;;4919594;29;20052;-66
2023/04/25 06:54:52;;;;;;;9.13;2.90;;;;;;;;;;4918374;29;20070;-65
2023/04/25 06:57:18;;;;;;;7.88;2.45;;;;;;;;;;4933489;29;20047;-66
2023/04/25 06:59:45;;;;;;;8.55;2.78;;;;;;;;;;4933771;29;20047;-66
2023/04/25 07:02:11;;;;;;;12.50;3.17;;;;;;;;;;4930520;29;20450;-66
2023/04/25 07:04:37;;;;;;;6.38;2.85;;;;;;;;;;4927468;29;20501;-66
2023/04/25 07:07:04;;;;;;;12.25;2.65;;;;;;;;;;4929939;29;20500;-66
2023/04/25 07:09:33;;;;;;;9.70;3.17;;;;;;;;;;4929756;29;20130;-66
2023/04/25 07:12:01;;;;;;;8.00;2.92;;;;;;;;;;4932603;29;20080;-66
2023/04/25 07:14:28;;;;;;;9.82;3.05;;;;;;;;;;4933656;29;20048;-66
2023/04/25 07:16:56;;;;;;;9.15;2.92;;;;;;;;;;4933628;29;20420;-65
2023/04/25 07:19:26;;;;;;;7.57;2.97;;;;;;;;;;4934277;29;20055;-65
2023/04/25 07:21:52;;;;;;;9.43;2.72;;;;;;;;;;4932917;29;20138;-64
2023/04/25 07:24:19;;;;;;;6.97;2.22;;;;;;;;;;4930538;29;20075;-65
2023/04/25 07:26:45;;;;;;;9.50;2.78;;;;;;;;;;4933013;29;20532;-64
2023/04/25 07:29:12;;;;;;;8.95;2.55;;;;;;;;;;4932932;29;20442;-64
2023/04/25 07:31:39;;;;;;;12.27;2.60;;;;;;;;;;4933136;29;20412;-64
2023/04/25 07:34:05;;;;;;;7.55;2.78;;;;;;;;;;4920240;29;20412;-64
2023/04/25 07:36:31;;;;;;;7.40;2.75;;;;;;;;;;4933340;29;20048;-64
2023/04/25 07:38:58;;;;;;;7.75;2.40;;;;;;;;;;4933775;29;20062;-64
2023/04/25 07:41:24;;;;;;;9.90;2.88;;;;;;;;;;4926657;29;20134;-64
2023/04/25 07:43:51;;;;;;;9.77;2.58;;;;;;;;;;4933622;29;20052;-66
2023/04/25 07:46:17;;;;;;;8.15;2.22;;;;;;;;;;4925473;29;20048;-67
2023/04/25 07:48:44;;;;;;;6.90;2.20;;;;;;;;;;4927205;29;20123;-67
2023/04/25 07:51:11;;;;;;;5.43;1.92;;;;;;;;;;4932659;29;20798;-67
2023/04/25 07:53:38;;;;;;;7.07;2.05;;;;;;;;;;4925861;29;20060;-67
2023/04/25 07:56:04;;;;;;;4.63;2.17;;;;;;;;;;4931362;29;20085;-67
2023/04/25 07:58:30;;;;;;;7.72;2.35;;;;;;;;;;4937341;29;20373;-67
2023/04/25 08:00:57;;;;;;;7.55;2.33;;;;;;;;;;4935428;29;20040;-67
2023/04/25 08:03:24;;;;;;;5.85;2.15;;;;;;;;;;4932201;29;20047;-67
2023/04/25 08:05:50;;;;;;;5.35;1.77;;;;;;;;;;4936568;29;20074;-66
2023/04/25 08:08:17;;;;;;;5.80;2.17;;;;;;;;;;4936880;29;20048;-66
2023/04/25 08:10:44;;;;;;;7.78;2.17;;;;;;;;;;4936282;29;20072;-67
2023/04/25 08:13:10;;;;;;;7.18;2.28;;;;;;;;;;4936266;29;20047;-66
2023/04/25 08:15:37;;;;;;;7.10;2.28;;;;;;;;;;4936181;29;20056;-66
2023/04/25 08:18:03;;;;;;;5.35;1.83;;;;;;;;;;4936710;29;20055;-66
2023/04/25 08:20:30;;;;;;;6.18;1.95;;;;;;;;;;4935899;29;20056;-67
2023/04/25 08:22:56;;;;;;;7.22;2.53;;;;;;;;;;4935983;29;20131;-66
2023/04/25 08:25:23;;;;;;;5.53;2.30;;;;;;;;;;4935936;29;20131;-66
2023/04/25 08:27:49;;;;;;;8.13;2.72;;;;;;;;;;4936671;29;20079;-66
2023/04/25 08:30:16;;;;;;;4.53;2.03;;;;;;;;;;4936132;29;20060;-67
2023/04/25 08:32:42;;;;;;;8.35;2.10;;;;;;;;;;4928602;29;20079;-67
2023/04/25 08:35:09;;;;;;;6.57;1.90;;;;;;;;;;4929471;29;20051;-67
2023/04/25 08:37:36;;;;;;;4.70;2.10;;;;;;;;;;4934201;29;20059;-67
2023/04/25 08:40:06;;;;;;;7.25;1.45;;;;;;;;;;4936255;29;20070;-67
2023/04/25 08:42:34;;;;;;;4.40;1.20;;;;;;;;;;4935572;29;20457;-67
2023/04/25 08:45:01;;;;;;;3.85;1.65;;;;;;;;;;4934724;29;20047;-67
2023/04/25 08:47:33;;;;;;;4.25;1.17;;;;;;;;;;4935950;29;20091;-67
2023/04/25 08:50:01;;;;;;;4.88;1.23;;;;;;;;;;4936284;29;20106;-67
2023/04/25 08:52:30;;;;;;;3.67;1.20;;;;;;;;;;4935299;29;20071;-67
2023/04/25 08:54:56;;;;;;;6.13;1.77;;;;;;;;;;4934636;29;20051;-67
2023/04/25 08:57:23;;;;;;;4.50;1.52;;;;;;;;;;4935538;29;20079;-67
2023/04/25 08:59:51;;;;;;;2.88;1.15;;;;;;;;;;4935964;29;20134;-68
2023/04/25 09:02:20;;;;;;;4.55;1.58;;;;;;;;;;4934452;29;20048;-67
2023/04/25 09:04:47;;;;;;;3.17;1.08;;;;;;;;;;4934560;29;20052;-67
2023/04/25 09:07:18;;;;;;;5.55;1.55;;;;;;;;;;4934901;29;20483;-67
2023/04/25 09:09:44;;;;;;;5.78;1.85;;;;;;;;;;4935324;29;20066;-67
2023/04/25 09:12:11;;;;;;;6.18;1.55;;;;;;;;;;4935002;29;20138;-67
2023/04/25 09:14:37;;;;;;;5.30;1.37;;;;;;;;;;4935827;29;20483;-67
2023/04/25 09:17:04;;;;;;;4.45;2.05;;;;;;;;;;4935098;29;20082;-67
2023/04/25 09:19:32;;;;;;;4.45;1.60;;;;;;;;;;4935547;29;20559;-68
2023/04/25 09:22:03;;;;;;;2.67;0.80;;;;;;;;;;4934673;29;20056;-67
2023/04/25 09:24:31;;;;;;;3.83;0.93;;;;;;;;;;4935511;29;20066;-67
2023/04/25 09:26:58;;;;;;;4.15;1.10;;;;;;;;;;4930359;29;20046;-68
2023/04/25 09:29:31;;;;;;;6.63;1.50;;;;;;;;;;4916074;29;20054;-68
2023/04/25 09:32:11;;;;;;;4.28;1.20;;;;;;;;;;4933245;29;20052;-67
2023/04/25 09:34:48;;;;;;;3.15;1.17;;;;;;;;;;4935488;29;20076;-67
2023/04/25 09:37:18;;;;;;;2.88;1.10;;;;;;;;;;4934765;29;20059;-67
2023/04/25 09:39:46;;;;;;;2.15;0.70;;;;;;;;;;4935496;29;20143;-67
2023/04/25 09:42:14;;;;;;;2.55;0.95;;;;;;;;;;4934542;29;20505;-67
2023/04/25 09:44:45;;;;;;;3.40;1.00;;;;;;;;;;4934865;29;20147;-67
2023/04/25 09:47:15;;;;;;;3.58;0.80;;;;;;;;;;4933862;29;20401;-68
2023/04/25 09:49:42;;;;;;;3.33;0.80;;;;;;;;;;4934259;29;20484;-67
2023/04/25 09:52:09;;;;;;;2.55;0.88;;;;;;;;;;4933791;29;20142;-67
2023/04/25 09:54:35;;;;;;;;;;;;;;;;;;4935215;29;20059;-68
2023/04/25 09:57:07;;;;;;;2.70;1.02;;;;;;;;;;4933598;29;19938;-68
2023/04/25 09:59:35;;;;;;;4.00;0.77;;;;;;;;;;4920273;29;20488;-68
2023/04/25 10:02:02;;;;;;;2.95;0.90;;;;;;;;;;4930218;29;20046;-67
2023/04/25 10:04:30;;;;;;;2.78;0.93;;;;;;;;;;4934549;29;20055;-68
2023/04/25 10:07:00;;;;;;;2.95;1.10;;;;;;;;;;4934227;29;20044;-68
2023/04/25 10:09:29;;;;;;;2.10;0.90;;;;;;;;;;4934017;29;20389;-68
2023/04/25 10:11:56;;;;;;;4.20;1.38;;;;;;;;;;4934112;29;20055;-68
2023/04/25 10:14:23;;;;;;;3.25;0.80;;;;;;;;;;4933833;29;20498;-68
2023/04/25 10:16:53;;;;;;;2.85;1.20;;;;;;;;;;4933889;29;20052;-68
2023/04/25 10:19:20;;;;;;;1.77;1.00;;;;;;;;;;4924078;29;20139;-68
2023/04/25 10:21:49;;;;;;;4.10;1.30;;;;;;;;;;4931473;29;20051;-68
2023/04/25 10:24:16;;;;;;;2.00;0.90;;;;;;;;;;4934427;29;20071;-68
2023/04/25 10:26:42;;;;;;;3.97;1.30;;;;;;;;;;4933752;29;20047;-68
2023/04/25 10:29:09;;;;;;;3.03;1.10;;;;;;;;;;4934078;29;20085;-68
2023/04/25 10:31:44;;;;;;;2.40;1.10;;;;;;;;;;4933639;29;20126;-68
2023/04/25 10:34:10;;;;;;;2.35;1.00;;;;;;;;;;4934010;29;20058;-68
2023/04/25 10:36:37;;;;;;;2.53;1.00;;;;;;;;;;4933783;29;20530;-68
2023/04/25 10:39:06;;;;;;;;;;;;;;;;;;4934904;29;20055;-68
2023/04/25 10:41:45;;;;;;;2.92;1.02;;;;;;;;;;4933528;29;20391;-69
2023/04/25 10:44:11;;;;;;;3.42;1.00;;;;;;;;;;4933997;29;20062;-69
2023/04/25 10:46:38;;;;;;;3.97;1.27;;;;;;;;;;4931052;29;20067;-68
2023/04/25 10:49:04;;;;;;;3.13;1.00;;;;;;;;;;4934588;29;20044;-69
2023/04/25 10:51:34;;;;;;;2.13;0.52;;;;;;;;;;4933535;29;20062;-69
2023/04/25 10:54:20;;;;;;;3.97;1.20;;;;;;;;;;4934356;29;20051;-68
2023/04/25 10:56:48;;;;;;;2.97;1.10;;;;;;;;;;4933967;29;20150;-68
2023/04/25 10:59:18;;;;;;;3.55;1.17;;;;;;;;;;4932105;29;20130;-67
2023/04/25 11:01:46;;;;;;;3.30;0.98;;;;;;;;;;4933174;29;20083;-67
2023/04/25 11:04:24;;;;;;;3.58;1.23;;;;;;;;;;4933862;29;20055;-67
2023/04/25 11:07:07;;;;;;;3.22;0.90;;;;;;;;;;4930297;29;20052;-67
2023/04/25 11:09:34;;;;;;;2.72;1.00;;;;;;;;;;4933361;29;20151;-68
2023/04/25 11:12:01;;;;;;;1.55;0.70;;;;;;;;;;4933555;29;20508;-67
2023/04/25 11:14:27;;;;;;;2.78;1.00;;;;;;;;;;4933803;29;20119;-67
2023/04/25 11:16:55;;;;;;;;;;;;;;;;;;4933984;29;20098;-66
2023/04/25 11:19:24;;;;;;;2.50;0.90;;;;;;;;;;4933638;29;19931;-66
2023/04/25 11:21:50;;;;;;;2.25;0.90;;;;;;;;;;4933311;29;20062;-66
2023/04/25 11:24:17;;;;;;;;;;;;;;;;;;4933618;29;20062;-66
2023/04/25 11:26:46;;;;;;;1.27;1.00;;;;;;;;;;4933783;29;19927;-66
2023/04/25 11:29:12;;;;;;;1.75;0.70;;;;;;;;;;4935719;29;20556;-66
2023/04/25 11:31:38;;;;;;;;;;;;;;;;;;4938110;29;20134;-65
2023/04/25 11:34:05;;;;;;;2.05;1.00;;;;;;;;;;4936470;29;19923;-67
2023/04/25 11:36:31;;;;;;;1.63;0.85;;;;;;;;;;4937011;29;20052;-67
2023/04/25 11:38:58;;;;;;;1.95;1.02;;;;;;;;;;4937272;29;20056;-67
2023/04/25 11:41:25;;;;;;;1.77;0.90;;;;;;;;;;4936896;29;20138;-67
2023/04/25 11:43:54;;;;;;;1.40;0.75;;;;;;;;;;4935078;29;20122;-67
2023/04/25 11:46:21;;;;;;;2.53;0.82;;;;;;;;;;4936839;29;20130;-67
2023/04/25 11:48:50;;;;;;;1.50;0.82;;;;;;;;;;4937075;29;20491;-67
2023/04/25 11:51:17;;;;;;;1.95;0.90;;;;;;;;;;4936060;29;20056;-67
2023/04/25 11:53:46;;;;;;;2.47;1.00;;;;;;;;;;4936961;29;20146;-68
2023/04/25 11:56:12;;;;;;;2.15;0.88;;;;;;;;;;4936638;29;20094;-67
2023/04/25 11:59:01;;;;;;;2.00;1.02;;;;;;;;;;4936739;29;20135;-68
2023/04/25 12:01:32;;;;;;;1.50;1.00;;;;;;;;;;4936756;29;20048;-68
2023/04/25 12:04:36;;;;;;;1.42;0.93;;;;;;;;;;4932728;29;20185;-68
2023/04/25 12:07:03;;;;;;;1.75;1.02;;;;;;;;;;4875087;29;20053;-68
2023/04/25 12:09:31;;;;;;;1.73;0.80;;;;;;;;;;4921601;29;20130;-68
2023/04/25 12:11:59;;;;;;;1.95;0.80;;;;;;;;;;4937173;29;20452;-68
2023/04/25 12:14:29;;;;;;;2.22;0.85;;;;;;;;;;4936311;29;20055;-67
2023/04/25 12:16:57;;;;;;;1.65;0.77;;;;;;;;;;4936638;29;20058;-68
2023/04/25 12:19:24;;;;;;;2.15;0.90;;;;;;;;;;4935682;29;20130;-68
2023/04/25 12:21:51;;;;;;;2.58;1.00;;;;;;;;;;4936268;29;20086;-68
2023/04/25 12:24:25;;;;;;;1.95;1.02;;;;;;;;;;4936076;29;20047;-68
2023/04/25 12:27:02;;;;;;;3.03;0.98;;;;;;;;;;4936847;29;20048;-68
2023/04/25 12:29:30;;;;;;;1.35;0.82;;;;;;;;;;4936187;29;20394;-68
2023/04/25 12:32:07;;;;;;;1.42;0.85;;;;;;;;;;4936788;29;20089;-68
2023/04/25 12:34:35;;;;;;;1.25;0.80;;;;;;;;;;4935480;29;20062;-68
2023/04/25 12:37:02;;;;;;;2.40;0.85;;;;;;;;;;4935381;29;20134;-68
2023/04/25 12:39:28;;;;;;;1.92;0.98;;;;;;;;;;4930518;29;20087;-68
2023/04/25 12:41:55;;;;;;;1.95;0.70;;;;;;;;;;4928193;29;20058;-67
2023/04/25 12:44:21;;;;;;;2.22;1.10;;;;;;;;;;4935500;29;20058;-67
2023/04/25 12:46:48;;;;;;;2.70;1.00;;;;;;;;;;4935228;29;20050;-67
2023/04/25 12:49:14;;;;;;;1.70;0.70;;;;;;;;;;4936069;29;20047;-68
2023/04/25 12:51:44;;;;;;;1.45;0.85;;;;;;;;;;4936408;29;20043;-68
2023/04/25 12:54:11;;;;;;;;;;;;;;;;;;4936094;29;20083;-68
2023/04/25 12:56:37;;;;;;;2.15;1.10;;;;;;;;;;4935066;29;19930;-67
2023/04/25 12:59:03;;;;;;;;;;;;;;;;;;4935943;29;20055;-67
2023/04/25 13:01:30;;;;;;;;;;;;;;;;;;4936455;29;19932;-67
2023/04/25 13:03:56;;;;;;;;;;;;;;;;;;4936134;29;19934;-67
2023/04/25 13:06:23;;;;;;;2.00;1.13;;;;;;;;;;4935355;29;19923;-67
2023/04/25 13:08:50;;;;;;;3.38;1.38;;;;;;;;;;4935113;29;20106;-67
2023/04/25 13:11:16;;;;;;;2.80;1.45;;;;;;;;;;4935922;29;20134;-67
2023/04/25 13:13:43;;;;;;;2.50;2.10;;;;;;;;;;4923071;29;20123;-67
2023/04/25 13:16:10;;;;;;;3.47;1.83;;;;;;;;;;4933963;29;20059;-67
2023/04/25 13:18:36;;;;;;;1.20;0.93;;;;;;;;;;4935386;29;20051;-67
2023/04/25 13:21:03;;;;;;;1.40;1.00;;;;;;;;;;4935209;29;20051;-67
2023/04/25 13:23:30;;;;;;;4.07;1.40;;;;;;;;;;4934902;29;20130;-67
2023/04/25 13:26:01;;;;;;;5.00;1.10;;;;;;;;;;4935340;29;20282;-67
2023/04/25 13:28:28;;;;;;;1.73;0.90;;;;;;;;;;4935001;29;20107;-67
2023/04/25 13:30:54;;;;;;;0.90;0.73;;;;;;;;;;4935500;29;20054;-67
2023/04/25 13:33:20;;;;;;;2.92;0.88;;;;;;;;;;4934871;29;20063;-67
2023/04/25 13:35:57;;;;;;;2.50;0.95;;;;;;;;;;4934148;29;20052;-67
2023/04/25 13:38:24;;;;;;;2.05;1.10;;;;;;;;;;4935035;29;20449;-67
2023/04/25 13:40:52;;;;;;;;;;;;;;;;;;4928772;29;20567;-66
2023/04/25 13:43:19;;;;;;;2.13;1.10;;;;;;;;;;4933916;29;19996;-66
2023/04/25 13:45:45;;;;;;;1.35;0.80;;;;;;;;;;4934815;29;20407;-67
2023/04/25 13:48:12;;;;;;;1.50;1.00;;;;;;;;;;4934667;29;20474;-66
2023/04/25 13:50:38;;;;;;;2.92;1.40;;;;;;;;;;4934729;29;20401;-67
2023/04/25 13:53:05;;;;;;;1.60;1.10;;;;;;;;;;4934796;29;20052;-67
2023/04/25 13:55:32;;;;;;;1.48;0.63;;;;;;;;;;4933423;29;20054;-67
2023/04/25 13:57:58;;;;;;;1.35;0.75;;;;;;;;;;4934896;29;20052;-67
2023/04/25 14:00:24;;;;;;;2.25;0.90;;;;;;;;;;4934351;29;20056;-67
2023/04/25 14:02:51;;;;;;;2.67;0.98;;;;;;;;;;4935153;29;20051;-67
2023/04/25 14:05:17;;;;;;;;;;;;;;;;;;4934735;29;20059;-68
2023/04/25 14:07:44;;;;;;;;;;;;;;;;;;4926626;29;19923;-68
2023/04/25 14:10:10;;;;;;;;;;;;;;;;;;4923833;29;20367;-68
2023/04/25 14:12:36;;;;;;;3.15;0.80;;;;;;;;;;4928215;29;19926;-68
2023/04/25 14:15:02;;;;;;;;;;;;;;;;;;4934363;29;20140;-68
2023/04/25 14:17:29;;;;;;;1.92;0.80;;;;;;;;;;4932790;29;19933;-68
2023/04/25 14:19:56;;;;;;;1.45;0.80;;;;;;;;;;4933915;29;20075;-68
2023/04/25 14:22:22;;;;;;;1.40;0.70;;;;;;;;;;4934384;29;20139;-68
2023/04/25 14:24:48;;;;;;;;;;;;;;;;;;4932277;29;20090;-68
2023/04/25 14:27:15;;;;;;;1.30;0.90;;;;;;;;;;4933870;29;19973;-68
2023/04/25 14:29:41;;;;;;;2.40;0.95;;;;;;;;;;4933758;29;20043;-68
2023/04/25 14:32:08;;;;;;;1.92;0.90;;;;;;;;;;4934509;29;20058;-68
2023/04/25 14:34:35;;;;;;;2.67;0.80;;;;;;;;;;4933954;29;20040;-68
2023/04/25 14:37:01;;;;;;;1.55;0.98;;;;;;;;;;4934037;29;20061;-68
2023/04/25 14:39:28;;;;;;;;;;;;;;;;;;4934189;29;20051;-67
2023/04/25 14:41:55;;;;;;;2.60;1.08;;;;;;;;;;4934285;29;20080;-67
2023/04/25 14:44:22;;;;;;;1.10;0.80;;;;;;;;;;4933866;29;20050;-68